sensor_id;sensor_type;location;lat;lon;timestamp;P1;durP1;ratioP1;P2;durP2;ratioP2
48751;SDS011;34544;48.836;9.174;2022-09-09T00:00:26;5.95;;;2.70;;
48751;SDS011;34544;48.836;9.174;2022-09-09T00:03:01;3.58;;;1.58;;
48751;SDS011;34544;48.836;9.174;2022-09-09T00:08:18;3.80;;;2.00;;
48751;SDS011;34544;48.836;9.174;2022-09-09T00:10:48;5.28;;;1.60;;
48751;SDS011;34544;48.836;9.174;2022-09-09T00:13:28;6.32;;;2.03;;
48751;SDS011;34544;48.836;9.174;2022-09-09T00:16:08;3.60;;;1.60;;
48751;SDS011;34544;48.836;9.174;2022-09-09T00:18:51;17.10;;;2.78;;
48751;SDS011;34544;48.836;9.174;2022-09-09T00:21:21;6.30;;;2.45;;
48751;SDS011;34544;48.836;9.174;2022-09-09T00:23:55;6.00;;;1.27;;
48751;SDS011;34544;48.836;9.174;2022-09-09T00:31:53;3.40;;;1.10;;
48751;SDS011;34544;48.836;9.174;2022-09-09T00:34:23;2.00;;;0.60;;
48751;SDS011;34544;48.836;9.174;2022-09-09T00:36:52;4.80;;;1.13;;
48751;SDS011;34544;48.836;9.174;2022-09-09T00:42:17;1.75;;;0.52;;
48751;SDS011;34544;48.836;9.174;2022-09-09T00:47:59;5.72;;;1.20;;
48751;SDS011;34544;48.836;9.174;2022-09-09T00:54:10;2.67;;;1.10;;
48751;SDS011;34544;48.836;9.174;2022-09-09T00:56:25;3.47;;;0.95;;
48751;SDS011;34544;48.836;9.174;2022-09-09T01:01:53;3.45;;;0.95;;
48751;SDS011;34544;48.836;9.174;2022-09-09T01:04:24;3.92;;;1.00;;
48751;SDS011;34544;48.836;9.174;2022-09-09T01:07:00;2.50;;;0.98;;
48751;SDS011;34544;48.836;9.174;2022-09-09T01:09:50;2.25;;;1.00;;
48751;SDS011;34544;48.836;9.174;2022-09-09T01:12:23;3.53;;;1.35;;
48751;SDS011;34544;48.836;9.174;2022-09-09T01:15:10;4.43;;;0.70;;
48751;SDS011;34544;48.836;9.174;2022-09-09T01:18:01;5.43;;;1.13;;
48751;SDS011;34544;48.836;9.174;2022-09-09T01:26:38;4.60;;;1.55;;
48751;SDS011;34544;48.836;9.174;2022-09-09T01:29:14;2.35;;;0.70;;
48751;SDS011;34544;48.836;9.174;2022-09-09T01:31:52;2.70;;;1.05;;
48751;SDS011;34544;48.836;9.174;2022-09-09T01:34:43;5.82;;;1.05;;
48751;SDS011;34544;48.836;9.174;2022-09-09T01:37:10;5.20;;;1.10;;
48751;SDS011;34544;48.836;9.174;2022-09-09T01:39:38;5.15;;;1.20;;
48751;SDS011;34544;48.836;9.174;2022-09-09T01:42:11;1.13;;;0.68;;
48751;SDS011;34544;48.836;9.174;2022-09-09T01:44:40;1.75;;;1.00;;
48751;SDS011;34544;48.836;9.174;2022-09-09T01:47:06;9.95;;;1.17;;
48751;SDS011;34544;48.836;9.174;2022-09-09T01:49:34;3.75;;;1.13;;
48751;SDS011;34544;48.836;9.174;2022-09-09T01:52:07;0.75;;;0.70;;
48751;SDS011;34544;48.836;9.174;2022-09-09T01:54:36;1.98;;;1.30;;
48751;SDS011;34544;48.836;9.174;2022-09-09T01:57:15;3.67;;;0.90;;
48751;SDS011;34544;48.836;9.174;2022-09-09T02:00:07;4.40;;;1.17;;
48751;SDS011;34544;48.836;9.174;2022-09-09T02:02:48;6.05;;;1.02;;
48751;SDS011;34544;48.836;9.174;2022-09-09T02:05:40;3.30;;;1.02;;
48751;SDS011;34544;48.836;9.174;2022-09-09T02:08:26;5.68;;;0.75;;
48751;SDS011;34544;48.836;9.174;2022-09-09T02:11:09;5.60;;;1.08;;
48751;SDS011;34544;48.836;9.174;2022-09-09T02:13:57;1.58;;;0.77;;
48751;SDS011;34544;48.836;9.174;2022-09-09T02:19:08;3.53;;;1.00;;
48751;SDS011;34544;48.836;9.174;2022-09-09T02:21:55;3.83;;;1.00;;
48751;SDS011;34544;48.836;9.174;2022-09-09T02:24:23;3.15;;;0.90;;
48751;SDS011;34544;48.836;9.174;2022-09-09T02:27:01;2.80;;;1.02;;
48751;SDS011;34544;48.836;9.174;2022-09-09T02:29:35;1.83;;;0.88;;
48751;SDS011;34544;48.836;9.174;2022-09-09T02:32:07;2.60;;;0.98;;
48751;SDS011;34544;48.836;9.174;2022-09-09T02:37:07;4.30;;;0.90;;
48751;SDS011;34544;48.836;9.174;2022-09-09T02:39:35;4.63;;;0.85;;
48751;SDS011;34544;48.836;9.174;2022-09-09T02:42:03;1.50;;;0.63;;
48751;SDS011;34544;48.836;9.174;2022-09-09T02:44:31;4.72;;;1.10;;
48751;SDS011;34544;48.836;9.174;2022-09-09T02:52:20;6.47;;;1.30;;
48751;SDS011;34544;48.836;9.174;2022-09-09T02:54:54;1.05;;;0.73;;
48751;SDS011;34544;48.836;9.174;2022-09-09T02:57:26;5.20;;;1.13;;
48751;SDS011;34544;48.836;9.174;2022-09-09T02:59:56;0.75;;;0.68;;
48751;SDS011;34544;48.836;9.174;2022-09-09T03:02:25;3.53;;;1.00;;
48751;SDS011;34544;48.836;9.174;2022-09-09T03:04:56;2.63;;;0.80;;
48751;SDS011;34544;48.836;9.174;2022-09-09T03:07:23;0.90;;;0.40;;
48751;SDS011;34544;48.836;9.174;2022-09-09T03:09:50;2.50;;;0.70;;
48751;SDS011;34544;48.836;9.174;2022-09-09T03:12:17;3.30;;;1.00;;
48751;SDS011;34544;48.836;9.174;2022-09-09T03:14:43;6.10;;;0.90;;
48751;SDS011;34544;48.836;9.174;2022-09-09T03:17:11;1.77;;;0.80;;
48751;SDS011;34544;48.836;9.174;2022-09-09T03:19:44;0.60;;;0.47;;
48751;SDS011;34544;48.836;9.174;2022-09-09T03:22:10;4.55;;;0.73;;
48751;SDS011;34544;48.836;9.174;2022-09-09T03:24:39;2.70;;;0.60;;
48751;SDS011;34544;48.836;9.174;2022-09-09T03:27:05;4.28;;;1.13;;
48751;SDS011;34544;48.836;9.174;2022-09-09T03:29:33;2.13;;;0.80;;
48751;SDS011;34544;48.836;9.174;2022-09-09T03:32:02;8.25;;;1.00;;
48751;SDS011;34544;48.836;9.174;2022-09-09T03:34:28;1.60;;;0.65;;
48751;SDS011;34544;48.836;9.174;2022-09-09T03:36:55;2.40;;;0.80;;
48751;SDS011;34544;48.836;9.174;2022-09-09T03:39:21;2.67;;;0.80;;
48751;SDS011;34544;48.836;9.174;2022-09-09T03:41:47;6.03;;;0.80;;
48751;SDS011;34544;48.836;9.174;2022-09-09T03:44:14;1.13;;;0.70;;
48751;SDS011;34544;48.836;9.174;2022-09-09T03:46:41;1.00;;;0.80;;
48751;SDS011;34544;48.836;9.174;2022-09-09T03:49:07;1.23;;;0.70;;
48751;SDS011;34544;48.836;9.174;2022-09-09T03:51:34;2.85;;;0.73;;
48751;SDS011;34544;48.836;9.174;2022-09-09T03:54:01;3.30;;;0.75;;
48751;SDS011;34544;48.836;9.174;2022-09-09T03:56:30;1.58;;;0.60;;
48751;SDS011;34544;48.836;9.174;2022-09-09T03:58:56;5.13;;;1.13;;
48751;SDS011;34544;48.836;9.174;2022-09-09T04:01:25;2.42;;;0.80;;
48751;SDS011;34544;48.836;9.174;2022-09-09T04:03:51;4.97;;;1.15;;
48751;SDS011;34544;48.836;9.174;2022-09-09T04:06:17;4.72;;;1.30;;
48751;SDS011;34544;48.836;9.174;2022-09-09T04:08:46;2.83;;;1.05;;
48751;SDS011;34544;48.836;9.174;2022-09-09T04:11:14;4.10;;;0.95;;
48751;SDS011;34544;48.836;9.174;2022-09-09T04:13:42;2.45;;;1.23;;
48751;SDS011;34544;48.836;9.174;2022-09-09T04:16:11;4.00;;;0.95;;
48751;SDS011;34544;48.836;9.174;2022-09-09T04:18:42;3.65;;;0.80;;
48751;SDS011;34544;48.836;9.174;2022-09-09T04:21:08;7.28;;;1.13;;
48751;SDS011;34544;48.836;9.174;2022-09-09T04:23:35;2.30;;;0.95;;
48751;SDS011;34544;48.836;9.174;2022-09-09T04:26:02;3.08;;;1.40;;
48751;SDS011;34544;48.836;9.174;2022-09-09T04:28:30;1.42;;;0.88;;
48751;SDS011;34544;48.836;9.174;2022-09-09T04:31:08;4.32;;;1.60;;
48751;SDS011;34544;48.836;9.174;2022-09-09T04:33:37;3.33;;;1.52;;
48751;SDS011;34544;48.836;9.174;2022-09-09T04:36:03;6.65;;;2.17;;
48751;SDS011;34544;48.836;9.174;2022-09-09T04:38:29;6.07;;;1.63;;
48751;SDS011;34544;48.836;9.174;2022-09-09T04:40:55;12.60;;;2.28;;
48751;SDS011;34544;48.836;9.174;2022-09-09T04:43:21;3.03;;;1.48;;
48751;SDS011;34544;48.836;9.174;2022-09-09T04:45:49;3.47;;;1.92;;
48751;SDS011;34544;48.836;9.174;2022-09-09T04:48:21;4.35;;;1.75;;
48751;SDS011;34544;48.836;9.174;2022-09-09T04:50:57;5.05;;;1.80;;
48751;SDS011;34544;48.836;9.174;2022-09-09T04:53:25;7.43;;;1.48;;
48751;SDS011;34544;48.836;9.174;2022-09-09T04:55:52;5.90;;;1.73;;
48751;SDS011;34544;48.836;9.174;2022-09-09T04:58:29;3.53;;;1.63;;
48751;SDS011;34544;48.836;9.174;2022-09-09T05:01:02;7.55;;;1.88;;
48751;SDS011;34544;48.836;9.174;2022-09-09T05:03:40;5.10;;;1.73;;
48751;SDS011;34544;48.836;9.174;2022-09-09T05:06:09;7.80;;;1.58;;
48751;SDS011;34544;48.836;9.174;2022-09-09T05:08:36;7.40;;;2.08;;
48751;SDS011;34544;48.836;9.174;2022-09-09T05:11:03;3.83;;;1.45;;
48751;SDS011;34544;48.836;9.174;2022-09-09T05:13:37;5.05;;;1.83;;
48751;SDS011;34544;48.836;9.174;2022-09-09T05:16:03;6.18;;;1.67;;
48751;SDS011;34544;48.836;9.174;2022-09-09T05:18:29;3.67;;;1.80;;
48751;SDS011;34544;48.836;9.174;2022-09-09T05:20:58;5.18;;;1.42;;
48751;SDS011;34544;48.836;9.174;2022-09-09T05:23:25;2.35;;;1.17;;
48751;SDS011;34544;48.836;9.174;2022-09-09T05:25:55;3.00;;;1.83;;
48751;SDS011;34544;48.836;9.174;2022-09-09T05:28:23;3.28;;;1.40;;
48751;SDS011;34544;48.836;9.174;2022-09-09T05:30:57;5.88;;;1.38;;
48751;SDS011;34544;48.836;9.174;2022-09-09T05:33:33;6.63;;;1.50;;
48751;SDS011;34544;48.836;9.174;2022-09-09T05:36:01;4.32;;;1.67;;
48751;SDS011;34544;48.836;9.174;2022-09-09T05:38:32;2.47;;;1.42;;
48751;SDS011;34544;48.836;9.174;2022-09-09T05:40:59;3.65;;;0.90;;
48751;SDS011;34544;48.836;9.174;2022-09-09T05:43:25;4.72;;;1.67;;
48751;SDS011;34544;48.836;9.174;2022-09-09T05:46:02;9.38;;;1.13;;
48751;SDS011;34544;48.836;9.174;2022-09-09T05:48:34;2.90;;;1.20;;
48751;SDS011;34544;48.836;9.174;2022-09-09T05:51:04;4.30;;;1.30;;
48751;SDS011;34544;48.836;9.174;2022-09-09T05:53:34;7.00;;;1.38;;
48751;SDS011;34544;48.836;9.174;2022-09-09T05:56:00;1.50;;;1.40;;
48751;SDS011;34544;48.836;9.174;2022-09-09T05:58:33;6.22;;;1.55;;
48751;SDS011;34544;48.836;9.174;2022-09-09T06:01:00;2.72;;;1.13;;
48751;SDS011;34544;48.836;9.174;2022-09-09T06:03:31;4.32;;;1.30;;
48751;SDS011;34544;48.836;9.174;2022-09-09T06:05:57;7.28;;;1.42;;
48751;SDS011;34544;48.836;9.174;2022-09-09T06:08:31;4.90;;;1.75;;
48751;SDS011;34544;48.836;9.174;2022-09-09T06:11:01;5.85;;;1.50;;
48751;SDS011;34544;48.836;9.174;2022-09-09T06:13:29;7.68;;;1.30;;
48751;SDS011;34544;48.836;9.174;2022-09-09T06:15:56;5.75;;;1.65;;
48751;SDS011;34544;48.836;9.174;2022-09-09T06:18:23;4.88;;;1.67;;
48751;SDS011;34544;48.836;9.174;2022-09-09T06:20:55;3.97;;;1.30;;
48751;SDS011;34544;48.836;9.174;2022-09-09T06:23:32;5.70;;;1.27;;
48751;SDS011;34544;48.836;9.174;2022-09-09T06:26:19;5.18;;;1.30;;
48751;SDS011;34544;48.836;9.174;2022-09-09T06:28:49;6.78;;;1.60;;
48751;SDS011;34544;48.836;9.174;2022-09-09T06:31:19;3.80;;;1.83;;
48751;SDS011;34544;48.836;9.174;2022-09-09T06:33:48;7.22;;;1.70;;
48751;SDS011;34544;48.836;9.174;2022-09-09T06:36:20;8.23;;;1.73;;
48751;SDS011;34544;48.836;9.174;2022-09-09T06:41:15;4.00;;;1.55;;
48751;SDS011;34544;48.836;9.174;2022-09-09T06:43:44;3.53;;;1.27;;
48751;SDS011;34544;48.836;9.174;2022-09-09T06:46:15;7.60;;;1.80;;
48751;SDS011;34544;48.836;9.174;2022-09-09T06:48:44;4.20;;;1.08;;
48751;SDS011;34544;48.836;9.174;2022-09-09T06:51:17;3.25;;;1.10;;
48751;SDS011;34544;48.836;9.174;2022-09-09T06:53:46;6.05;;;1.27;;
48751;SDS011;34544;48.836;9.174;2022-09-09T06:56:18;8.52;;;1.35;;
48751;SDS011;34544;48.836;9.174;2022-09-09T06:58:46;6.72;;;1.40;;
48751;SDS011;34544;48.836;9.174;2022-09-09T07:01:21;2.92;;;1.15;;
48751;SDS011;34544;48.836;9.174;2022-09-09T07:03:50;6.60;;;1.10;;
48751;SDS011;34544;48.836;9.174;2022-09-09T07:06:18;3.22;;;0.88;;
48751;SDS011;34544;48.836;9.174;2022-09-09T07:08:49;9.57;;;1.10;;
48751;SDS011;34544;48.836;9.174;2022-09-09T07:11:16;1.73;;;1.10;;
48751;SDS011;34544;48.836;9.174;2022-09-09T07:13:44;5.03;;;0.90;;
48751;SDS011;34544;48.836;9.174;2022-09-09T07:16:11;6.72;;;1.02;;
48751;SDS011;34544;48.836;9.174;2022-09-09T07:18:40;7.82;;;1.65;;
48751;SDS011;34544;48.836;9.174;2022-09-09T07:21:07;4.57;;;1.08;;
48751;SDS011;34544;48.836;9.174;2022-09-09T07:23:34;2.15;;;1.33;;
48751;SDS011;34544;48.836;9.174;2022-09-09T07:26:07;3.22;;;1.05;;
48751;SDS011;34544;48.836;9.174;2022-09-09T07:28:34;4.65;;;0.80;;
48751;SDS011;34544;48.836;9.174;2022-09-09T07:31:01;11.05;;;1.00;;
48751;SDS011;34544;48.836;9.174;2022-09-09T07:33:28;1.30;;;0.73;;
48751;SDS011;34544;48.836;9.174;2022-09-09T07:36:03;2.42;;;1.05;;
48751;SDS011;34544;48.836;9.174;2022-09-09T07:38:29;2.03;;;0.70;;
48751;SDS011;34544;48.836;9.174;2022-09-09T07:41:03;4.68;;;0.93;;
48751;SDS011;34544;48.836;9.174;2022-09-09T07:43:31;0.82;;;0.50;;
48751;SDS011;34544;48.836;9.174;2022-09-09T07:45:58;1.42;;;0.75;;
48751;SDS011;34544;48.836;9.174;2022-09-09T07:48:27;3.88;;;0.88;;
48751;SDS011;34544;48.836;9.174;2022-09-09T07:51:02;3.03;;;0.90;;
48751;SDS011;34544;48.836;9.174;2022-09-09T07:53:32;4.40;;;0.95;;
48751;SDS011;34544;48.836;9.174;2022-09-09T07:56:03;2.45;;;0.60;;
48751;SDS011;34544;48.836;9.174;2022-09-09T07:58:35;1.70;;;0.60;;
48751;SDS011;34544;48.836;9.174;2022-09-09T08:03:34;3.90;;;1.25;;
48751;SDS011;34544;48.836;9.174;2022-09-09T08:06:02;7.18;;;0.80;;
48751;SDS011;34544;48.836;9.174;2022-09-09T08:08:29;1.33;;;0.52;;
48751;SDS011;34544;48.836;9.174;2022-09-09T08:11:05;1.60;;;0.70;;
48751;SDS011;34544;48.836;9.174;2022-09-09T08:13:33;6.07;;;0.68;;
48751;SDS011;34544;48.836;9.174;2022-09-09T08:16:06;6.25;;;1.52;;
48751;SDS011;34544;48.836;9.174;2022-09-09T08:18:35;4.43;;;1.33;;
48751;SDS011;34544;48.836;9.174;2022-09-09T08:21:44;2.22;;;0.60;;
48751;SDS011;34544;48.836;9.174;2022-09-09T08:23:57;3.40;;;0.80;;
48751;SDS011;34544;48.836;9.174;2022-09-09T08:26:25;2.55;;;1.13;;
48751;SDS011;34544;48.836;9.174;2022-09-09T08:29:02;2.25;;;0.80;;
48751;SDS011;34544;48.836;9.174;2022-09-09T08:31:40;2.47;;;0.90;;
48751;SDS011;34544;48.836;9.174;2022-09-09T08:34:27;4.15;;;0.70;;
48751;SDS011;34544;48.836;9.174;2022-09-09T08:36:57;3.25;;;0.80;;
48751;SDS011;34544;48.836;9.174;2022-09-09T08:39:29;1.50;;;0.43;;
48751;SDS011;34544;48.836;9.174;2022-09-09T08:44:42;2.33;;;0.80;;
48751;SDS011;34544;48.836;9.174;2022-09-09T08:55:52;1.45;;;0.65;;
48751;SDS011;34544;48.836;9.174;2022-09-09T08:58:31;3.25;;;0.90;;
48751;SDS011;34544;48.836;9.174;2022-09-09T09:11:57;1.35;;;0.50;;
48751;SDS011;34544;48.836;9.174;2022-09-09T09:14:29;0.90;;;0.40;;
48751;SDS011;34544;48.836;9.174;2022-09-09T09:19:41;1.13;;;0.52;;
48751;SDS011;34544;48.836;9.174;2022-09-09T09:22:53;2.05;;;0.57;;
48751;SDS011;34544;48.836;9.174;2022-09-09T09:28:02;2.70;;;0.73;;
48751;SDS011;34544;48.836;9.174;2022-09-09T09:33:32;3.47;;;0.90;;
48751;SDS011;34544;48.836;9.174;2022-09-09T09:36:05;4.20;;;1.58;;
48751;SDS011;34544;48.836;9.174;2022-09-09T09:38:36;3.15;;;0.68;;
48751;SDS011;34544;48.836;9.174;2022-09-09T09:41:03;3.40;;;1.10;;
48751;SDS011;34544;48.836;9.174;2022-09-09T09:43:30;6.05;;;0.95;;
48751;SDS011;34544;48.836;9.174;2022-09-09T09:46:05;4.03;;;0.82;;
48751;SDS011;34544;48.836;9.174;2022-09-09T09:48:45;5.90;;;0.60;;
48751;SDS011;34544;48.836;9.174;2022-09-09T09:51:26;3.05;;;0.73;;
48751;SDS011;34544;48.836;9.174;2022-09-09T09:53:53;1.55;;;0.50;;
48751;SDS011;34544;48.836;9.174;2022-09-09T09:56:29;2.53;;;0.80;;
48751;SDS011;34544;48.836;9.174;2022-09-09T09:58:55;1.60;;;0.47;;
48751;SDS011;34544;48.836;9.174;2022-09-09T10:01:29;1.30;;;0.38;;
48751;SDS011;34544;48.836;9.174;2022-09-09T10:04:14;1.42;;;0.50;;
48751;SDS011;34544;48.836;9.174;2022-09-09T10:06:41;1.43;;;0.40;;
48751;SDS011;34544;48.836;9.174;2022-09-09T10:09:26;1.30;;;0.40;;
48751;SDS011;34544;48.836;9.174;2022-09-09T10:15:00;1.60;;;0.35;;
48751;SDS011;34544;48.836;9.174;2022-09-09T10:17:58;2.88;;;0.65;;
48751;SDS011;34544;48.836;9.174;2022-09-09T10:20:46;2.13;;;0.40;;
48751;SDS011;34544;48.836;9.174;2022-09-09T10:32:01;2.35;;;0.60;;
48751;SDS011;34544;48.836;9.174;2022-09-09T10:34:55;3.78;;;1.23;;
48751;SDS011;34544;48.836;9.174;2022-09-09T10:40:05;2.95;;;0.80;;
48751;SDS011;34544;48.836;9.174;2022-09-09T10:42:34;1.67;;;0.60;;
48751;SDS011;34544;48.836;9.174;2022-09-09T10:45:15;2.95;;;0.73;;
48751;SDS011;34544;48.836;9.174;2022-09-09T10:48:03;1.27;;;0.40;;
48751;SDS011;34544;48.836;9.174;2022-09-09T10:50:43;2.92;;;0.45;;
48751;SDS011;34544;48.836;9.174;2022-09-09T10:55:53;2.92;;;0.52;;
48751;SDS011;34544;48.836;9.174;2022-09-09T10:58:47;2.03;;;0.57;;
48751;SDS011;34544;48.836;9.174;2022-09-09T11:01:24;4.32;;;1.33;;
48751;SDS011;34544;48.836;9.174;2022-09-09T11:03:56;0.90;;;0.50;;
48751;SDS011;34544;48.836;9.174;2022-09-09T11:06:29;6.55;;;1.05;;
48751;SDS011;34544;48.836;9.174;2022-09-09T11:09:31;5.40;;;1.58;;
48751;SDS011;34544;48.836;9.174;2022-09-09T11:12:01;4.55;;;0.75;;
48751;SDS011;34544;48.836;9.174;2022-09-09T11:17:22;0.60;;;0.40;;
48751;SDS011;34544;48.836;9.174;2022-09-09T11:19:52;2.10;;;0.50;;
48751;SDS011;34544;48.836;9.174;2022-09-09T11:22:35;5.15;;;0.95;;
48751;SDS011;34544;48.836;9.174;2022-09-09T11:25:29;3.08;;;0.70;;
48751;SDS011;34544;48.836;9.174;2022-09-09T11:38:42;3.30;;;0.85;;
48751;SDS011;34544;48.836;9.174;2022-09-09T11:41:11;2.30;;;0.35;;
48751;SDS011;34544;48.836;9.174;2022-09-09T11:46:09;1.38;;;0.60;;
48751;SDS011;34544;48.836;9.174;2022-09-09T11:48:41;3.85;;;0.57;;
48751;SDS011;34544;48.836;9.174;2022-09-09T11:51:12;2.20;;;0.30;;
48751;SDS011;34544;48.836;9.174;2022-09-09T11:53:57;2.67;;;1.20;;
48751;SDS011;34544;48.836;9.174;2022-09-09T11:56:30;4.18;;;0.40;;
48751;SDS011;34544;48.836;9.174;2022-09-09T11:59:06;0.38;;;0.20;;
48751;SDS011;34544;48.836;9.174;2022-09-09T12:01:48;1.00;;;0.20;;
48751;SDS011;34544;48.836;9.174;2022-09-09T12:06:53;4.30;;;0.50;;
48751;SDS011;34544;48.836;9.174;2022-09-09T12:11:51;2.38;;;0.40;;
48751;SDS011;34544;48.836;9.174;2022-09-09T12:14:34;0.93;;;0.20;;
48751;SDS011;34544;48.836;9.174;2022-09-09T12:17:29;2.95;;;0.40;;
48751;SDS011;34544;48.836;9.174;2022-09-09T12:20:23;0.45;;;0.20;;
48751;SDS011;34544;48.836;9.174;2022-09-09T12:22:58;0.28;;;0.15;;
48751;SDS011;34544;48.836;9.174;2022-09-09T12:28:25;2.05;;;0.30;;
48751;SDS011;34544;48.836;9.174;2022-09-09T12:33:53;0.93;;;0.30;;
48751;SDS011;34544;48.836;9.174;2022-09-09T12:36:27;1.75;;;0.30;;
48751;SDS011;34544;48.836;9.174;2022-09-09T12:38:56;1.75;;;0.45;;
48751;SDS011;34544;48.836;9.174;2022-09-09T12:41:35;1.45;;;0.40;;
48751;SDS011;34544;48.836;9.174;2022-09-09T12:44:08;1.83;;;0.82;;
48751;SDS011;34544;48.836;9.174;2022-09-09T12:46:36;0.75;;;0.20;;
48751;SDS011;34544;48.836;9.174;2022-09-09T12:49:29;0.80;;;0.30;;
48751;SDS011;34544;48.836;9.174;2022-09-09T12:52:16;1.07;;;0.37;;
48751;SDS011;34544;48.836;9.174;2022-09-09T12:54:50;0.68;;;0.20;;
48751;SDS011;34544;48.836;9.174;2022-09-09T12:57:18;0.52;;;0.32;;
48751;SDS011;34544;48.836;9.174;2022-09-09T12:59:46;0.98;;;0.38;;
48751;SDS011;34544;48.836;9.174;2022-09-09T13:02:26;2.28;;;0.43;;
48751;SDS011;34544;48.836;9.174;2022-09-09T13:04:53;1.40;;;0.32;;
48751;SDS011;34544;48.836;9.174;2022-09-09T13:07:19;0.70;;;0.30;;
48751;SDS011;34544;48.836;9.174;2022-09-09T13:09:47;0.95;;;0.30;;
48751;SDS011;34544;48.836;9.174;2022-09-09T13:12:21;1.77;;;0.55;;
48751;SDS011;34544;48.836;9.174;2022-09-09T13:14:52;4.13;;;0.32;;
48751;SDS011;34544;48.836;9.174;2022-09-09T13:17:21;2.00;;;0.60;;
48751;SDS011;34544;48.836;9.174;2022-09-09T13:19:53;2.00;;;0.68;;
48751;SDS011;34544;48.836;9.174;2022-09-09T13:22:31;0.88;;;0.47;;
48751;SDS011;34544;48.836;9.174;2022-09-09T13:27:36;1.63;;;0.50;;
48751;SDS011;34544;48.836;9.174;2022-09-09T13:38:27;1.45;;;0.20;;
48751;SDS011;34544;48.836;9.174;2022-09-09T13:43:22;3.58;;;0.47;;
48751;SDS011;34544;48.836;9.174;2022-09-09T13:45:53;1.20;;;0.40;;
48751;SDS011;34544;48.836;9.174;2022-09-09T13:48:21;2.17;;;0.40;;
48751;SDS011;34544;48.836;9.174;2022-09-09T13:50:55;1.02;;;0.32;;
48751;SDS011;34544;48.836;9.174;2022-09-09T13:53:26;3.75;;;0.50;;
48751;SDS011;34544;48.836;9.174;2022-09-09T13:55:52;1.33;;;0.40;;
48751;SDS011;34544;48.836;9.174;2022-09-09T13:58:18;3.40;;;0.43;;
48751;SDS011;34544;48.836;9.174;2022-09-09T14:00:44;1.40;;;0.50;;
48751;SDS011;34544;48.836;9.174;2022-09-09T14:03:11;1.85;;;0.30;;
48751;SDS011;34544;48.836;9.174;2022-09-09T14:05:36;0.75;;;0.30;;
48751;SDS011;34544;48.836;9.174;2022-09-09T14:08:06;1.75;;;0.40;;
48751;SDS011;34544;48.836;9.174;2022-09-09T14:10:33;1.48;;;0.22;;
48751;SDS011;34544;48.836;9.174;2022-09-09T14:13:02;4.63;;;0.43;;
48751;SDS011;34544;48.836;9.174;2022-09-09T14:15:28;1.33;;;0.40;;
48751;SDS011;34544;48.836;9.174;2022-09-09T14:17:54;0.70;;;0.30;;
48751;SDS011;34544;48.836;9.174;2022-09-09T14:20:20;2.35;;;0.45;;
48751;SDS011;34544;48.836;9.174;2022-09-09T14:22:46;2.28;;;0.40;;
48751;SDS011;34544;48.836;9.174;2022-09-09T14:25:12;4.70;;;0.40;;
48751;SDS011;34544;48.836;9.174;2022-09-09T14:27:41;1.45;;;0.50;;
48751;SDS011;34544;48.836;9.174;2022-09-09T14:30:07;1.27;;;0.30;;
48751;SDS011;34544;48.836;9.174;2022-09-09T14:32:34;0.52;;;0.35;;
48751;SDS011;34544;48.836;9.174;2022-09-09T14:35:00;1.77;;;0.32;;
48751;SDS011;34544;48.836;9.174;2022-09-09T14:37:26;3.05;;;0.40;;
48751;SDS011;34544;48.836;9.174;2022-09-09T14:39:52;3.85;;;0.55;;
48751;SDS011;34544;48.836;9.174;2022-09-09T14:42:18;1.33;;;0.50;;
48751;SDS011;34544;48.836;9.174;2022-09-09T14:44:44;0.88;;;0.30;;
48751;SDS011;34544;48.836;9.174;2022-09-09T14:47:10;1.83;;;0.52;;
48751;SDS011;34544;48.836;9.174;2022-09-09T14:49:36;1.60;;;0.30;;
48751;SDS011;34544;48.836;9.174;2022-09-09T14:52:02;4.25;;;0.70;;
48751;SDS011;34544;48.836;9.174;2022-09-09T14:54:28;1.15;;;0.20;;
48751;SDS011;34544;48.836;9.174;2022-09-09T14:56:55;3.55;;;0.68;;
48751;SDS011;34544;48.836;9.174;2022-09-09T14:59:21;11.07;;;0.52;;
48751;SDS011;34544;48.836;9.174;2022-09-09T15:01:47;0.85;;;0.40;;
48751;SDS011;34544;48.836;9.174;2022-09-09T15:04:13;1.05;;;0.30;;
48751;SDS011;34544;48.836;9.174;2022-09-09T15:06:43;2.65;;;0.45;;
48751;SDS011;34544;48.836;9.174;2022-09-09T15:09:13;3.72;;;0.30;;
48751;SDS011;34544;48.836;9.174;2022-09-09T15:11:39;0.75;;;0.40;;
48751;SDS011;34544;48.836;9.174;2022-09-09T15:14:06;1.50;;;0.40;;
48751;SDS011;34544;48.836;9.174;2022-09-09T15:16:32;1.48;;;0.40;;
48751;SDS011;34544;48.836;9.174;2022-09-09T15:18:59;0.22;;;0.13;;
48751;SDS011;34544;48.836;9.174;2022-09-09T15:21:29;1.48;;;0.40;;
48751;SDS011;34544;48.836;9.174;2022-09-09T15:23:56;3.53;;;0.52;;
48751;SDS011;34544;48.836;9.174;2022-09-09T15:26:23;1.30;;;0.30;;
48751;SDS011;34544;48.836;9.174;2022-09-09T15:28:49;1.42;;;1.33;;
48751;SDS011;34544;48.836;9.174;2022-09-09T15:31:17;1.10;;;0.30;;
48751;SDS011;34544;48.836;9.174;2022-09-09T15:33:54;0.88;;;0.30;;
48751;SDS011;34544;48.836;9.174;2022-09-09T15:38:55;2.95;;;0.40;;
48751;SDS011;34544;48.836;9.174;2022-09-09T15:41:21;2.78;;;0.35;;
48751;SDS011;34544;48.836;9.174;2022-09-09T15:43:53;1.35;;;0.40;;
48751;SDS011;34544;48.836;9.174;2022-09-09T15:46:25;1.95;;;0.47;;
48751;SDS011;34544;48.836;9.174;2022-09-09T15:48:54;0.22;;;0.20;;
48751;SDS011;34544;48.836;9.174;2022-09-09T15:51:27;0.82;;;0.30;;
48751;SDS011;34544;48.836;9.174;2022-09-09T15:53:53;1.77;;;0.38;;
48751;SDS011;34544;48.836;9.174;2022-09-09T15:56:21;0.22;;;0.20;;
48751;SDS011;34544;48.836;9.174;2022-09-09T15:58:47;2.30;;;0.60;;
48751;SDS011;34544;48.836;9.174;2022-09-09T16:01:13;1.27;;;0.50;;
48751;SDS011;34544;48.836;9.174;2022-09-09T16:03:42;1.60;;;1.05;;
48751;SDS011;34544;48.836;9.174;2022-09-09T16:06:11;1.08;;;0.47;;
48751;SDS011;34544;48.836;9.174;2022-09-09T16:08:39;1.98;;;0.40;;
48751;SDS011;34544;48.836;9.174;2022-09-09T16:11:07;1.95;;;0.77;;
48751;SDS011;34544;48.836;9.174;2022-09-09T16:13:35;2.63;;;0.60;;
48751;SDS011;34544;48.836;9.174;2022-09-09T16:16:02;4.55;;;0.73;;
48751;SDS011;34544;48.836;9.174;2022-09-09T16:18:33;1.65;;;0.47;;
48751;SDS011;34544;48.836;9.174;2022-09-09T16:21:03;1.10;;;0.70;;
48751;SDS011;34544;48.836;9.174;2022-09-09T16:23:30;1.08;;;0.70;;
48751;SDS011;34544;48.836;9.174;2022-09-09T16:25:57;1.45;;;0.60;;
48751;SDS011;34544;48.836;9.174;2022-09-09T16:28:23;2.80;;;0.30;;
48751;SDS011;34544;48.836;9.174;2022-09-09T16:30:49;2.67;;;0.22;;
48751;SDS011;34544;48.836;9.174;2022-09-09T16:33:15;0.10;;;0.10;;
48751;SDS011;34544;48.836;9.174;2022-09-09T16:35:42;2.08;;;0.22;;
48751;SDS011;34544;48.836;9.174;2022-09-09T16:38:09;0.25;;;0.08;;
48751;SDS011;34544;48.836;9.174;2022-09-09T16:40:35;0.65;;;0.20;;
48751;SDS011;34544;48.836;9.174;2022-09-09T16:43:04;1.38;;;0.40;;
48751;SDS011;34544;48.836;9.174;2022-09-09T16:45:30;1.25;;;0.35;;
48751;SDS011;34544;48.836;9.174;2022-09-09T16:47:57;2.67;;;0.30;;
48751;SDS011;34544;48.836;9.174;2022-09-09T16:50:23;0.82;;;0.40;;
48751;SDS011;34544;48.836;9.174;2022-09-09T16:52:50;0.80;;;0.10;;
48751;SDS011;34544;48.836;9.174;2022-09-09T16:55:16;1.60;;;0.20;;
48751;SDS011;34544;48.836;9.174;2022-09-09T16:57:45;0.10;;;0.10;;
48751;SDS011;34544;48.836;9.174;2022-09-09T17:00:14;2.75;;;0.20;;
48751;SDS011;34544;48.836;9.174;2022-09-09T17:02:41;1.48;;;0.32;;
48751;SDS011;34544;48.836;9.174;2022-09-09T17:05:10;1.33;;;0.25;;
48751;SDS011;34544;48.836;9.174;2022-09-09T17:07:37;0.55;;;0.40;;
48751;SDS011;34544;48.836;9.174;2022-09-09T17:10:04;1.08;;;0.32;;
48751;SDS011;34544;48.836;9.174;2022-09-09T17:12:31;0.50;;;0.20;;
48751;SDS011;34544;48.836;9.174;2022-09-09T17:14:57;0.93;;;0.30;;
48751;SDS011;34544;48.836;9.174;2022-09-09T17:17:24;1.15;;;0.10;;
48751;SDS011;34544;48.836;9.174;2022-09-09T17:19:51;1.23;;;0.25;;
48751;SDS011;34544;48.836;9.174;2022-09-09T17:22:18;0.68;;;0.15;;
48751;SDS011;34544;48.836;9.174;2022-09-09T17:24:44;1.00;;;0.17;;